Time;durP1;ratioP1;P1;durP2;ratioP2;P2;SDS_P1;SDS_P2;PMS_P1;PMS_P2;Temp;Humidity;BMP_temperature;BMP_pressure;BME280_temperature;BME280_humidity;BME280_pressure;Samples;Min_cycle;Max_cycle;Signal;HPM_P1;HPM_P2
2021/12/08 00:01:05;;;;;;;;;;;2.70;71.20;;;;;;4996986;28;19922;-81
2021/12/08 00:03:31;;;;;;;;;;;2.70;70.90;;;;;;4996143;28;19952;-79
2021/12/08 00:05:59;;;;;;;;;;;2.70;70.80;;;;;;5001537;28;19969;-79
2021/12/08 00:08:28;;;;;;;;;;;2.70;70.90;;;;;;5012355;28;20422;-82
2021/12/08 00:13:26;;;;;;;;;;;2.80;71.80;;;;;;4994328;28;20013;-80
2021/12/08 00:15:54;;;;;;;;;;;2.80;71.90;;;;;;4985849;28;19926;-81
2021/12/08 00:18:25;;;;;;;;;;;2.80;72.50;;;;;;4999410;28;19925;-80
2021/12/08 00:20:54;;;;;;;;;;;2.90;71.80;;;;;;4998658;28;19905;-81
2021/12/08 00:23:21;;;;;;;;;;;2.90;71.50;;;;;;4996880;28;19925;-80
2021/12/08 00:25:49;;;;;;;;;;;2.90;71.60;;;;;;5001884;28;19925;-80
2021/12/08 00:28:16;;;;;;;;;;;2.90;71.60;;;;;;4999242;28;19922;-82
2021/12/08 00:30:45;;;;;;;;;;;2.90;72.50;;;;;;5001343;28;19933;-77
2021/12/08 00:33:12;;;;;;;;;;;2.90;72.60;;;;;;4998185;28;19984;-80
2021/12/08 00:35:40;;;;;;;;;;;2.90;72.50;;;;;;4995291;28;20429;-78
2021/12/08 00:38:08;;;;;;;;;;;2.90;72.50;;;;;;4988854;28;19922;-78
2021/12/08 00:40:35;;;;;;;;;;;2.90;72.60;;;;;;4980145;28;19926;-80
2021/12/08 00:43:02;;;;;;;;;;;2.90;71.40;;;;;;4987121;28;19945;-80
2021/12/08 00:45:29;;;;;;;;;;;3.00;71.00;;;;;;5001894;28;19910;-78
2021/12/08 00:47:56;;;;;;;;;;;3.00;71.10;;;;;;4982326;28;20275;-79
2021/12/08 00:50:25;;;;;;;;;;;3.00;71.40;;;;;;4999968;28;19926;-77
2021/12/08 00:52:52;;;;;;;;;;;3.00;71.40;;;;;;5002261;28;19929;-78
2021/12/08 00:55:19;;;;;;;;;;;3.00;71.60;;;;;;4997222;28;19926;-79
2021/12/08 00:57:47;;;;;;;;;;;3.10;71.10;;;;;;4985589;28;19922;-78
2021/12/08 01:00:23;;;;;;;;;;;3.10;70.40;;;;;;4999617;28;20363;-78
2021/12/08 01:02:50;;;;;;;;;;;3.10;70.30;;;;;;4981403;28;20429;-81
2021/12/08 01:05:18;;;;;;;;;;;3.00;69.90;;;;;;4999321;28;20386;-80
2021/12/08 01:07:46;;;;;;;;;;;3.10;69.80;;;;;;4984790;28;19926;-78
2021/12/08 01:10:16;;;;;;;;;;;3.10;71.00;;;;;;5013602;28;20351;-78
2021/12/08 01:13:00;;;;;;;;;;;3.10;70.60;;;;;;4996198;28;19922;-79
2021/12/08 01:15:27;;;;;;;;;;;3.10;70.60;;;;;;4988239;28;19926;-81
2021/12/08 01:17:55;;;;;;;;;;;3.10;70.60;;;;;;4990172;28;19987;-78
2021/12/08 01:20:22;;;;;;;;;;;3.20;70.10;;;;;;4999983;28;19922;-78
2021/12/08 01:22:49;;;;;;;;;;;3.20;69.30;;;;;;5000129;28;19926;-76
2021/12/08 01:25:15;;;;;;;;;;;3.20;69.20;;;;;;4995078;28;19922;-80
2021/12/08 01:27:42;;;;;;;;;;;3.10;69.60;;;;;;5001913;28;19922;-77
2021/12/08 01:30:09;;;;;;;;;;;3.10;69.80;;;;;;5001181;28;19945;-79
2021/12/08 01:32:36;;;;;;;;;;;3.10;69.20;;;;;;4997949;28;19921;-80
2021/12/08 01:35:04;;;;;;;;;;;3.10;69.40;;;;;;4990306;28;19930;-81
2021/12/08 01:37:31;;;;;;;;;;;3.10;69.40;;;;;;4975502;28;19922;-79
2021/12/08 01:39:58;;;;;;;;;;;3.10;69.60;;;;;;4982782;28;19922;-78
2021/12/08 01:42:35;;;;;;;;;;;3.00;69.40;;;;;;4988483;28;19926;-79
2021/12/08 01:47:50;;;;;;;;;;;3.10;70.00;;;;;;4994793;28;19929;-81
2021/12/08 01:50:17;;;;;;;;;;;3.10;69.80;;;;;;4994972;28;19945;-81
2021/12/08 01:52:44;;;;;;;;;;;3.10;69.80;;;;;;4998865;28;20390;-79
2021/12/08 01:55:11;;;;;;;;;;;3.10;69.20;;;;;;4996508;28;19926;-78
2021/12/08 01:57:45;;;;;;;;;;;3.20;69.00;;;;;;4985436;28;20319;-79
2021/12/08 02:00:20;;;;;;;;;;;3.10;68.70;;;;;;4987422;28;19922;-78
2021/12/08 02:02:47;;;;;;;;;;;3.20;68.70;;;;;;4997670;28;19922;-81
2021/12/08 02:05:14;;;;;;;;;;;3.20;68.50;;;;;;5000839;28;19929;-78
2021/12/08 02:07:41;;;;;;;;;;;3.20;68.50;;;;;;5003631;28;19921;-79
2021/12/08 02:10:09;;;;;;;;;;;3.20;68.60;;;;;;4987165;28;20318;-80
2021/12/08 02:12:39;;;;;;;;;;;3.30;68.80;;;;;;4997095;28;19980;-80
2021/12/08 02:15:07;;;;;;;;;;;3.20;68.60;;;;;;4991719;28;19949;-78
2021/12/08 02:17:34;;;;;;;;;;;3.30;68.80;;;;;;4994508;28;19928;-79
2021/12/08 02:20:02;;;;;;;;;;;3.30;68.50;;;;;;4996966;28;19922;-79
2021/12/08 02:22:29;;;;;;;;;;;3.30;68.40;;;;;;5005547;28;19931;-79
2021/12/08 02:24:56;;;;;;;;;;;3.30;68.80;;;;;;4993437;28;19926;-79
2021/12/08 02:27:23;;;;;;;;;;;3.30;69.50;;;;;;4989599;28;20386;-80
2021/12/08 02:29:56;;;;;;;;;;;3.20;70.00;;;;;;4985700;28;19926;-80
2021/12/08 02:48:37;;;;;;;;;;;3.10;70.80;;;;;;5001196;28;19925;-81
2021/12/08 02:51:04;;;;;;;;;;;3.10;69.60;;;;;;4999281;28;19949;-80
2021/12/08 02:53:32;;;;;;;;;;;3.10;69.80;;;;;;4997403;28;19922;-80
2021/12/08 02:55:59;;;;;;;;;;;3.20;69.60;;;;;;4992621;28;19925;-79
2021/12/08 02:58:26;;;;;;;;;;;3.20;68.30;;;;;;4995346;28;20378;-81
2021/12/08 03:00:56;;;;;;;;;;;3.20;68.10;;;;;;4996577;28;19986;-80
2021/12/08 03:03:23;;;;;;;;;;;3.30;67.30;;;;;;4988134;28;19984;-80
2021/12/08 03:05:50;;;;;;;;;;;3.30;66.60;;;;;;5000143;28;19921;-78
2021/12/08 03:08:17;;;;;;;;;;;3.40;66.10;;;;;;5003820;28;19921;-80
2021/12/08 03:10:47;;;;;;;;;;;3.50;66.10;;;;;;4996432;28;20116;-79
2021/12/08 03:13:14;;;;;;;;;;;3.60;66.20;;;;;;4986456;28;19926;-81
2021/12/08 03:15:42;;;;;;;;;;;3.60;66.70;;;;;;4996505;28;19922;-78
2021/12/08 03:18:10;;;;;;;;;;;3.70;67.20;;;;;;4996565;28;19922;-79
2021/12/08 03:20:43;;;;;;;;;;;3.70;67.10;;;;;;5002489;28;19921;-78
2021/12/08 03:23:12;;;;;;;;;;;3.70;67.50;;;;;;4998967;28;19925;-79
2021/12/08 03:25:43;;;;;;;;;;;3.70;68.70;;;;;;4996965;28;20280;-79
2021/12/08 03:28:22;;;;;;;;;;;3.60;69.00;;;;;;4998882;28;19921;-78
2021/12/08 03:33:22;;;;;;;;;;;3.60;69.60;;;;;;4994970;28;19926;-81
2021/12/08 03:35:49;;;;;;;;;;;3.60;70.00;;;;;;4985955;28;19981;-80
2021/12/08 03:38:17;;;;;;;;;;;3.60;69.30;;;;;;4995949;28;19925;-81
2021/12/08 03:40:45;;;;;;;;;;;3.60;70.00;;;;;;5000613;28;20394;-80
2021/12/08 03:43:13;;;;;;;;;;;3.60;70.10;;;;;;4988611;28;19929;-80
2021/12/08 03:45:44;;;;;;;;;;;3.60;70.40;;;;;;4979167;28;19997;-80
2021/12/08 03:48:13;;;;;;;;;;;3.50;72.00;;;;;;4978290;28;20337;-79
2021/12/08 03:50:40;;;;;;;;;;;3.50;72.10;;;;;;4994528;28;19926;-81
2021/12/08 03:53:08;;;;;;;;;;;3.30;72.00;;;;;;4988228;28;20060;-80
2021/12/08 03:55:41;;;;;;;;;;;3.20;73.20;;;;;;4997549;28;20381;-79
2021/12/08 03:58:08;;;;;;;;;;;3.20;73.50;;;;;;4998292;28;19922;-80
2021/12/08 04:00:34;;;;;;;;;;;3.30;73.40;;;;;;4998382;28;19930;-78
2021/12/08 04:03:04;;;;;;;;;;;3.30;73.50;;;;;;4997458;28;19985;-79
2021/12/08 04:08:40;;;;;;;;;;;3.30;73.80;;;;;;5006150;28;19921;-77
2021/12/08 04:11:10;;;;;;;;;;;3.30;73.90;;;;;;4992865;28;19931;-77
2021/12/08 04:13:44;;;;;;;;;;;3.30;74.90;;;;;;4995813;28;19937;-78
2021/12/08 04:16:12;;;;;;;;;;;3.20;76.80;;;;;;4995658;28;19925;-81
2021/12/08 04:18:39;;;;;;;;;;;3.10;78.70;;;;;;5013304;28;19925;-78
2021/12/08 04:21:07;;;;;;;;;;;3.00;79.70;;;;;;4995680;28;19928;-81
2021/12/08 04:23:36;;;;;;;;;;;3.00;80.60;;;;;;4993976;28;19972;-80
2021/12/08 04:26:16;;;;;;;;;;;2.90;81.00;;;;;;4995097;28;20424;-78
2021/12/08 04:28:43;;;;;;;;;;;2.80;81.80;;;;;;4995355;28;19922;-78
2021/12/08 04:31:21;;;;;;;;;;;2.80;81.70;;;;;;4984437;28;19946;-80
2021/12/08 04:33:54;;;;;;;;;;;2.80;81.90;;;;;;4981261;28;19929;-80
2021/12/08 04:36:23;;;;;;;;;;;2.70;83.30;;;;;;4995203;28;19968;-80
2021/12/08 04:38:54;;;;;;;;;;;2.70;83.20;;;;;;4995171;28;19925;-80
2021/12/08 04:41:31;;;;;;;;;;;2.70;83.00;;;;;;4986548;28;19976;-78
2021/12/08 04:52:04;;;;;;;;;;;2.50;84.30;;;;;;4992114;28;19922;-79
2021/12/08 05:00:29;;;;;;;;;;;2.40;85.30;;;;;;4997406;28;19929;-80
2021/12/08 05:08:17;;;;;;;;;;;2.20;86.60;;;;;;5000133;28;19922;-79
2021/12/08 05:10:45;;;;;;;;;;;2.10;87.50;;;;;;4998231;28;19976;-80
2021/12/08 05:13:13;;;;;;;;;;;2.00;87.50;;;;;;4981986;28;19922;-79
2021/12/08 05:15:49;;;;;;;;;;;1.90;88.30;;;;;;4993648;28;19984;-79
2021/12/08 05:18:31;;;;;;;;;;;1.80;88.80;;;;;;4977796;28;19929;-80
2021/12/08 05:21:07;;;;;;;;;;;1.60;90.10;;;;;;4986677;28;19926;-80
2021/12/08 05:23:39;;;;;;;;;;;1.60;90.00;;;;;;4993739;28;19925;-80
2021/12/08 05:26:08;;;;;;;;;;;1.70;89.80;;;;;;4994491;28;19922;-80
2021/12/08 05:28:35;;;;;;;;;;;1.60;90.00;;;;;;4989815;28;19987;-79
2021/12/08 05:31:05;;;;;;;;;;;1.50;90.30;;;;;;4974704;28;19922;-81
2021/12/08 05:33:32;;;;;;;;;;;1.50;90.50;;;;;;4993931;28;19957;-80
2021/12/08 05:35:59;;;;;;;;;;;1.50;90.50;;;;;;4993462;28;19929;-79
2021/12/08 05:38:26;;;;;;;;;;;1.50;90.30;;;;;;4994609;28;19964;-79
2021/12/08 05:40:56;;;;;;;;;;;1.50;90.40;;;;;;4981245;28;19922;-79
2021/12/08 05:43:23;;;;;;;;;;;1.50;90.30;;;;;;4989801;28;20272;-79
2021/12/08 05:45:52;;;;;;;;;;;1.60;90.20;;;;;;4976387;28;19933;-79
2021/12/08 05:48:20;;;;;;;;;;;1.60;90.20;;;;;;5000468;28;19922;-79
2021/12/08 05:50:49;;;;;;;;;;;1.60;90.20;;;;;;4980352;28;20294;-79
2021/12/08 05:53:16;;;;;;;;;;;1.60;90.40;;;;;;4994630;28;19926;-81
2021/12/08 05:55:43;;;;;;;;;;;1.50;90.50;;;;;;5000695;28;20397;-79
2021/12/08 05:58:11;;;;;;;;;;;1.50;90.70;;;;;;4997655;28;19968;-80
2021/12/08 06:00:41;;;;;;;;;;;1.40;90.80;;;;;;4995963;28;19945;-80
2021/12/08 06:03:10;;;;;;;;;;;1.40;91.00;;;;;;4983674;28;19922;-82
2021/12/08 06:05:37;;;;;;;;;;;1.30;91.00;;;;;;4998355;28;20428;-83
2021/12/08 06:08:04;;;;;;;;;;;1.40;91.50;;;;;;4996594;28;19926;-80
2021/12/08 06:10:34;;;;;;;;;;;1.40;91.10;;;;;;4996987;28;19922;-82
2021/12/08 06:13:02;;;;;;;;;;;1.30;91.20;;;;;;4997074;28;19926;-80
2021/12/08 06:15:29;;;;;;;;;;;1.30;91.40;;;;;;4996818;28;19922;-79
2021/12/08 06:17:56;;;;;;;;;;;1.30;91.60;;;;;;4998114;28;19921;-82
2021/12/08 06:20:23;;;;;;;;;;;1.10;92.00;;;;;;4996157;28;19988;-78
2021/12/08 06:22:51;;;;;;;;;;;1.10;92.20;;;;;;4990988;28;19925;-78
2021/12/08 06:25:20;;;;;;;;;;;1.10;92.30;;;;;;4997378;28;19929;-80
2021/12/08 06:27:47;;;;;;;;;;;1.10;92.50;;;;;;4992700;28;19930;-81
2021/12/08 06:30:18;;;;;;;;;;;1.00;92.70;;;;;;4986971;28;19921;-79
2021/12/08 06:32:45;;;;;;;;;;;1.00;92.80;;;;;;4996580;28;20366;-80
2021/12/08 06:35:14;;;;;;;;;;;1.00;92.80;;;;;;4996208;28;19976;-80
2021/12/08 06:37:42;;;;;;;;;;;1.10;92.90;;;;;;4990795;28;20291;-80
2021/12/08 06:40:15;;;;;;;;;;;1.10;92.90;;;;;;4986650;28;19933;-80
2021/12/08 06:42:45;;;;;;;;;;;1.10;92.80;;;;;;4990432;28;19934;-79
2021/12/08 06:45:17;;;;;;;;;;;1.10;92.80;;;;;;4989250;28;19969;-79
2021/12/08 06:47:45;;;;;;;;;;;1.10;92.70;;;;;;4990293;28;20013;-81
2021/12/08 06:50:32;;;;;;;;;;;1.10;92.70;;;;;;4992448;28;19976;-80
2021/12/08 06:52:59;;;;;;;;;;;1.10;92.70;;;;;;4987108;28;20430;-79
2021/12/08 06:55:38;;;;;;;;;;;1.10;92.70;;;;;;4992188;28;19933;-80
2021/12/08 06:58:20;;;;;;;;;;;1.10;92.70;;;;;;4985429;28;19945;-79
2021/12/08 07:01:18;;;;;;;;;;;1.10;92.70;;;;;;4988120;28;19953;-78
2021/12/08 07:06:43;;;;;;;;;;;1.10;92.70;;;;;;4995966;28;19922;-78
2021/12/08 07:09:13;;;;;;;;;;;1.10;92.70;;;;;;4995601;28;20442;-80
2021/12/08 07:11:40;;;;;;;;;;;1.10;92.70;;;;;;4990155;28;19926;-79
2021/12/08 07:14:08;;;;;;;;;;;1.20;92.70;;;;;;4976723;28;19934;-81
2021/12/08 07:16:39;;;;;;;;;;;1.10;92.70;;;;;;4995341;28;20431;-78
2021/12/08 07:19:22;;;;;;;;;;;1.10;92.70;;;;;;4991045;28;19921;-78
2021/12/08 07:21:51;;;;;;;;;;;1.10;92.80;;;;;;4984367;28;19929;-78
2021/12/08 07:24:22;;;;;;;;;;;1.10;92.80;;;;;;4998155;28;19926;-79
2021/12/08 07:26:51;;;;;;;;;;;1.10;92.70;;;;;;4991745;28;20032;-78
2021/12/08 07:29:21;;;;;;;;;;;1.10;92.80;;;;;;4986876;28;20374;-81
2021/12/08 07:31:57;;;;;;;;;;;1.10;92.70;;;;;;4982300;28;19930;-81
2021/12/08 07:34:25;;;;;;;;;;;1.20;92.70;;;;;;4985673;28;19933;-78
2021/12/08 07:36:59;;;;;;;;;;;1.20;92.60;;;;;;4990604;28;19928;-79
2021/12/08 07:39:28;;;;;;;;;;;1.20;92.50;;;;;;5003431;28;19921;-79
2021/12/08 07:42:18;;;;;;;;;;;1.20;92.50;;;;;;4996956;28;19921;-78
2021/12/08 07:44:49;;;;;;;;;;;1.20;92.50;;;;;;4993722;28;20362;-80
2021/12/08 07:47:17;;;;;;;;;;;1.30;92.50;;;;;;4990028;28;19930;-80
2021/12/08 07:49:51;;;;;;;;;;;1.20;92.30;;;;;;5011215;28;19922;-79
2021/12/08 07:52:23;;;;;;;;;;;1.20;92.30;;;;;;4995026;28;19976;-77
2021/12/08 07:54:50;;;;;;;;;;;1.20;92.40;;;;;;4994522;28;19921;-81
2021/12/08 07:57:22;;;;;;;;;;;1.20;92.40;;;;;;4994117;28;19925;-78
2021/12/08 07:59:51;;;;;;;;;;;1.20;92.60;;;;;;4984603;28;20010;-80
2021/12/08 08:02:18;;;;;;;;;;;1.10;92.60;;;;;;4987885;28;20386;-80
2021/12/08 08:04:46;;;;;;;;;;;1.20;92.60;;;;;;4987805;28;19925;-79
2021/12/08 08:07:14;;;;;;;;;;;1.20;92.60;;;;;;4990200;28;20367;-79
2021/12/08 08:09:43;;;;;;;;;;;1.20;92.50;;;;;;4994129;28;20436;-78
2021/12/08 08:12:21;;;;;;;;;;;1.20;92.50;;;;;;4994337;28;19933;-79
2021/12/08 08:14:52;;;;;;;;;;;1.20;92.40;;;;;;4989142;28;19933;-81
2021/12/08 08:17:24;;;;;;;;;;;1.20;92.60;;;;;;4986829;28;19948;-79
2021/12/08 08:19:51;;;;;;;;;;;1.20;92.60;;;;;;4993643;28;20476;-80
2021/12/08 08:22:20;;;;;;;;;;;1.20;92.90;;;;;;4990644;28;19926;-78
2021/12/08 08:24:47;;;;;;;;;;;1.30;92.40;;;;;;4993880;28;19921;-79
2021/12/08 08:27:18;;;;;;;;;;;1.30;92.20;;;;;;4990405;28;19972;-81
2021/12/08 08:29:45;;;;;;;;;;;1.20;92.30;;;;;;4988093;28;19922;-78
2021/12/08 08:32:19;;;;;;;;;;;1.20;92.40;;;;;;5009703;28;19921;-79
2021/12/08 08:34:49;;;;;;;;;;;1.20;92.50;;;;;;4990780;28;19929;-80
2021/12/08 08:37:16;;;;;;;;;;;1.20;92.60;;;;;;4991533;28;19929;-81
2021/12/08 08:39:44;;;;;;;;;;;1.20;92.60;;;;;;4981935;28;19928;-79
2021/12/08 08:42:16;;;;;;;;;;;1.20;92.70;;;;;;4980916;28;19922;-78
2021/12/08 08:44:45;;;;;;;;;;;1.20;92.70;;;;;;4983600;28;19922;-78
2021/12/08 08:47:15;;;;;;;;;;;1.20;92.70;;;;;;4991698;28;19972;-81
2021/12/08 08:49:42;;;;;;;;;;;1.20;92.70;;;;;;5002874;28;19936;-78
2021/12/08 08:52:18;;;;;;;;;;;1.20;92.60;;;;;;4995031;28;19926;-79
2021/12/08 08:54:46;;;;;;;;;;;1.20;92.60;;;;;;4994360;28;19945;-79
2021/12/08 08:57:19;;;;;;;;;;;1.20;92.60;;;;;;4984744;28;19981;-79
2021/12/08 08:59:49;;;;;;;;;;;1.20;92.70;;;;;;4985766;28;19922;-79
2021/12/08 09:02:19;;;;;;;;;;;1.20;92.70;;;;;;4987053;28;19921;-80
2021/12/08 09:04:48;;;;;;;;;;;1.20;92.70;;;;;;4993295;28;19969;-78
2021/12/08 09:07:19;;;;;;;;;;;1.20;92.70;;;;;;4993088;28;19926;-80
2021/12/08 09:09:46;;;;;;;;;;;1.20;92.80;;;;;;4993215;28;19925;-78
2021/12/08 09:12:24;;;;;;;;;;;1.20;92.70;;;;;;5009923;28;20373;-78
2021/12/08 09:14:54;;;;;;;;;;;1.10;92.90;;;;;;4993171;28;20255;-80
2021/12/08 09:17:23;;;;;;;;;;;1.20;93.20;;;;;;4993084;28;19927;-79
2021/12/08 09:19:55;;;;;;;;;;;1.20;92.90;;;;;;4984290;28;19950;-79
2021/12/08 09:22:29;;;;;;;;;;;1.20;93.00;;;;;;4993220;28;19956;-80
2021/12/08 09:25:04;;;;;;;;;;;1.20;92.90;;;;;;4992117;28;19944;-78
2021/12/08 09:27:37;;;;;;;;;;;1.20;92.80;;;;;;4976224;28;19998;-78
2021/12/08 09:30:10;;;;;;;;;;;1.20;92.60;;;;;;4990707;28;19922;-78
2021/12/08 09:32:43;;;;;;;;;;;1.10;92.80;;;;;;4994120;28;19922;-79
2021/12/08 09:35:16;;;;;;;;;;;1.10;92.90;;;;;;4990524;28;19946;-79
2021/12/08 09:37:45;;;;;;;;;;;1.10;93.10;;;;;;4986187;28;20366;-80
2021/12/08 09:40:12;;;;;;;;;;;1.10;93.20;;;;;;5000116;28;20422;-79
2021/12/08 09:42:41;;;;;;;;;;;1.00;93.10;;;;;;4991064;28;19933;-79
2021/12/08 09:45:14;;;;;;;;;;;1.00;93.30;;;;;;4997147;28;19926;-80
2021/12/08 09:47:41;;;;;;;;;;;1.00;93.40;;;;;;4981887;28;20327;-78
2021/12/08 09:50:09;;;;;;;;;;;1.00;93.40;;;;;;5000721;28;20389;-78
2021/12/08 09:52:36;;;;;;;;;;;1.10;93.30;;;;;;4985931;28;20390;-80
2021/12/08 09:55:04;;;;;;;;;;;1.10;93.30;;;;;;4986096;28;19922;-78
2021/12/08 09:57:31;;;;;;;;;;;1.10;93.60;;;;;;4993736;28;19976;-80
2021/12/08 09:59:59;;;;;;;;;;;1.10;93.20;;;;;;4980282;28;19926;-81
2021/12/08 10:02:33;;;;;;;;;;;1.10;93.10;;;;;;4993817;28;19989;-79
2021/12/08 10:05:11;;;;;;;;;;;1.20;93.00;;;;;;4994422;28;20380;-79
2021/12/08 10:07:40;;;;;;;;;;;1.20;92.90;;;;;;5006801;28;20405;-76
2021/12/08 10:10:08;;;;;;;;;;;1.20;92.80;;;;;;4995602;28;20000;-78
2021/12/08 10:12:37;;;;;;;;;;;1.10;93.20;;;;;;4991035;28;19933;-79
2021/12/08 10:15:06;;;;;;;;;;;1.00;93.40;;;;;;4988087;28;19944;-80
2021/12/08 10:17:33;;;;;;;;;;;0.90;93.60;;;;;;4996243;28;19922;-79
2021/12/08 10:20:06;;;;;;;;;;;0.90;93.80;;;;;;4984206;28;19926;-77
2021/12/08 10:22:33;;;;;;;;;;;0.90;93.80;;;;;;4983590;28;19922;-77
2021/12/08 10:25:06;;;;;;;;;;;1.00;93.90;;;;;;4989109;28;20449;-76
2021/12/08 10:27:52;;;;;;;;;;;1.00;93.80;;;;;;4983524;28;19929;-80
2021/12/08 10:30:21;;;;;;;;;;;1.10;93.60;;;;;;4994283;28;19922;-79
2021/12/08 10:32:49;;;;;;;;;;;1.20;93.50;;;;;;4995681;28;19961;-79
2021/12/08 10:35:39;;;;;;;;;;;1.20;93.40;;;;;;4987918;28;19975;-80
2021/12/08 10:38:06;;;;;;;;;;;1.30;93.30;;;;;;5003866;28;19928;-79
2021/12/08 10:40:33;;;;;;;;;;;1.40;93.30;;;;;;4995559;28;19922;-77
2021/12/08 10:43:11;;;;;;;;;;;1.40;93.20;;;;;;4992313;28;19922;-77
2021/12/08 10:45:38;;;;;;;;;;;1.50;93.10;;;;;;4995518;28;19926;-79
2021/12/08 10:48:07;;;;;;;;;;;1.50;92.90;;;;;;4980539;28;20379;-78
2021/12/08 10:56:39;;;;;;;;;;;1.60;92.60;;;;;;4977148;28;19969;-80
2021/12/08 10:59:06;;;;;;;;;;;1.70;92.50;;;;;;4995617;28;20267;-79
2021/12/08 11:01:34;;;;;;;;;;;1.60;92.40;;;;;;4996093;28;20314;-79
2021/12/08 11:04:05;;;;;;;;;;;1.60;92.50;;;;;;4986778;28;19922;-78
2021/12/08 11:06:34;;;;;;;;;;;1.60;92.50;;;;;;4983335;28;19921;-79
2021/12/08 11:09:02;;;;;;;;;;;1.70;92.40;;;;;;4995591;28;19922;-79
2021/12/08 11:11:33;;;;;;;;;;;1.70;92.30;;;;;;4977297;28;19949;-80
2021/12/08 11:14:01;;;;;;;;;;;1.70;92.30;;;;;;4995398;28;19928;-80
2021/12/08 11:16:28;;;;;;;;;;;1.80;92.30;;;;;;4991447;28;19921;-81
2021/12/08 11:19:00;;;;;;;;;;;1.80;92.20;;;;;;4989429;28;20477;-78
2021/12/08 11:21:36;;;;;;;;;;;1.80;92.20;;;;;;4994781;28;20329;-78
2021/12/08 11:24:18;;;;;;;;;;;1.90;92.10;;;;;;4986681;28;19929;-79
2021/12/08 11:26:48;;;;;;;;;;;1.90;92.00;;;;;;4991442;28;19922;-78
2021/12/08 11:29:23;;;;;;;;;;;1.80;91.90;;;;;;4994158;28;19929;-79
2021/12/08 11:31:50;;;;;;;;;;;1.70;92.00;;;;;;4983841;28;20413;-80
2021/12/08 11:34:46;;;;;;;;;;;1.70;92.00;;;;;;4985189;28;19984;-78
2021/12/08 11:37:22;;;;;;;;;;;1.70;92.10;;;;;;4983949;28;19922;-79
2021/12/08 11:39:52;;;;;;;;;;;1.70;92.10;;;;;;5008244;28;19922;-79
2021/12/08 11:42:25;;;;;;;;;;;1.60;92.10;;;;;;4991785;28;19922;-78
2021/12/08 11:44:54;;;;;;;;;;;1.70;92.20;;;;;;4977490;28;19929;-79
2021/12/08 11:47:23;;;;;;;;;;;1.70;92.10;;;;;;4992203;28;19936;-80
2021/12/08 11:49:52;;;;;;;;;;;1.60;92.20;;;;;;4985651;28;20394;-78
2021/12/08 11:52:23;;;;;;;;;;;1.70;92.20;;;;;;4991638;28;19937;-78
2021/12/08 11:54:50;;;;;;;;;;;1.70;92.10;;;;;;4979454;28;19980;-80
2021/12/08 11:57:18;;;;;;;;;;;1.80;91.90;;;;;;4993621;28;20005;-80
2021/12/08 11:59:59;;;;;;;;;;;1.80;91.90;;;;;;4990414;28;20017;-80
2021/12/08 12:02:37;;;;;;;;;;;1.90;91.90;;;;;;4980507;28;19945;-78
2021/12/08 12:05:07;;;;;;;;;;;1.90;91.70;;;;;;4984129;28;20378;-79
2021/12/08 12:07:34;;;;;;;;;;;1.90;91.60;;;;;;4990818;28;19933;-79
2021/12/08 12:10:03;;;;;;;;;;;1.90;91.60;;;;;;4992427;28;19922;-79
2021/12/08 12:12:30;;;;;;;;;;;2.00;91.70;;;;;;4990757;28;20409;-77
2021/12/08 12:14:56;;;;;;;;;;;2.00;91.60;;;;;;4988349;28;19944;-77
2021/12/08 12:17:23;;;;;;;;;;;2.00;91.60;;;;;;4988591;28;20370;-79
2021/12/08 12:19:56;;;;;;;;;;;2.00;91.60;;;;;;4990836;28;19922;-80
2021/12/08 12:22:39;;;;;;;;;;;2.00;91.50;;;;;;5003758;28;20290;-78
2021/12/08 12:25:27;;;;;;;;;;;2.10;91.40;;;;;;4959038;28;19925;-78
2021/12/08 12:28:13;;;;;;;;;;;2.00;91.30;;;;;;4979993;28;19922;-79
2021/12/08 12:30:46;;;;;;;;;;;2.00;91.40;;;;;;4981261;28;19922;-79
2021/12/08 12:33:17;;;;;;;;;;;2.00;91.40;;;;;;4989409;28;19929;-79
2021/12/08 12:35:54;;;;;;;;;;;2.00;91.50;;;;;;4993712;28;20750;-78
2021/12/08 12:38:35;;;;;;;;;;;2.00;91.40;;;;;;4986294;28;19924;-77
2021/12/08 12:41:03;;;;;;;;;;;2.00;91.30;;;;;;4975523;28;19921;-78
2021/12/08 12:43:33;;;;;;;;;;;2.00;91.40;;;;;;4989387;28;20378;-78
2021/12/08 12:46:05;;;;;;;;;;;2.00;91.40;;;;;;4993628;28;20388;-77
2021/12/08 12:48:32;;;;;;;;;;;2.00;91.30;;;;;;5009671;28;19957;-79
2021/12/08 12:51:06;;;;;;;;;;;2.00;91.40;;;;;;4985850;28;19980;-78
2021/12/08 12:53:56;;;;;;;;;;;2.00;91.40;;;;;;4984971;28;20037;-78
2021/12/08 12:56:27;;;;;;;;;;;2.10;91.30;;;;;;4993951;28;19925;-78
2021/12/08 12:58:55;;;;;;;;;;;2.10;91.20;;;;;;4974110;28;19929;-78
2021/12/08 13:01:27;;;;;;;;;;;2.10;91.20;;;;;;4980765;28;19922;-80
2021/12/08 13:03:56;;;;;;;;;;;2.00;91.10;;;;;;4987206;28;20405;-80
2021/12/08 13:06:40;;;;;;;;;;;2.00;91.30;;;;;;4986246;28;20302;-81
2021/12/08 13:09:08;;;;;;;;;;;2.00;91.20;;;;;;4991447;28;19921;-78
2021/12/08 13:11:56;;;;;;;;;;;2.00;91.20;;;;;;4976989;28;20264;-79
2021/12/08 13:14:25;;;;;;;;;;;2.00;91.20;;;;;;4990163;28;19922;-78
2021/12/08 13:17:19;;;;;;;;;;;1.90;91.20;;;;;;4988895;28;19928;-78
2021/12/08 13:19:46;;;;;;;;;;;2.00;91.20;;;;;;4981940;28;19945;-79
2021/12/08 13:22:31;;;;;;;;;;;2.00;91.00;;;;;;4993105;28;19937;-78
2021/12/08 13:25:00;;;;;;;;;;;2.00;91.00;;;;;;4993740;28;19922;-78
2021/12/08 13:27:29;;;;;;;;;;;2.00;90.90;;;;;;4988210;28;19922;-78
2021/12/08 13:30:10;;;;;;;;;;;2.10;90.80;;;;;;4984243;28;19922;-77
2021/12/08 13:32:44;;;;;;;;;;;2.10;90.80;;;;;;4993244;28;19922;-78
2021/12/08 13:35:11;;;;;;;;;;;2.10;90.80;;;;;;4982489;28;19922;-78
2021/12/08 13:37:54;;;;;;;;;;;2.10;90.80;;;;;;4976286;28;19977;-78
2021/12/08 13:40:38;;;;;;;;;;;2.10;90.90;;;;;;4978666;28;19922;-81
2021/12/08 13:43:06;;;;;;;;;;;2.10;91.10;;;;;;4980770;28;19933;-81
2021/12/08 13:45:45;;;;;;;;;;;2.10;91.00;;;;;;4992511;28;20374;-78
2021/12/08 13:48:12;;;;;;;;;;;2.00;91.10;;;;;;4983318;28;20362;-78
2021/12/08 13:50:39;;;;;;;;;;;2.10;91.00;;;;;;5003471;28;19932;-78
2021/12/08 13:53:09;;;;;;;;;;;2.10;91.00;;;;;;4993717;28;19925;-79
2021/12/08 13:55:44;;;;;;;;;;;2.00;91.00;;;;;;4993190;28;19925;-81
2021/12/08 13:58:14;;;;;;;;;;;2.10;91.20;;;;;;4992903;28;20362;-78
2021/12/08 14:00:41;;;;;;;;;;;2.10;91.10;;;;;;4993191;28;20282;-78
2021/12/08 14:03:11;;;;;;;;;;;2.10;91.00;;;;;;4974507;28;20374;-77
2021/12/08 14:05:45;;;;;;;;;;;2.10;91.00;;;;;;4982304;28;19929;-81
2021/12/08 14:08:29;;;;;;;;;;;2.10;91.10;;;;;;4985970;28;19936;-77
2021/12/08 14:11:04;;;;;;;;;;;2.10;91.20;;;;;;4990877;28;19968;-77
2021/12/08 14:13:32;;;;;;;;;;;2.10;91.20;;;;;;4993172;28;20385;-82
2021/12/08 14:16:00;;;;;;;;;;;2.10;91.20;;;;;;4994292;28;20378;-79
2021/12/08 14:18:29;;;;;;;;;;;2.10;91.20;;;;;;5013093;28;20274;-79
2021/12/08 14:21:01;;;;;;;;;;;2.10;91.20;;;;;;4990860;28;19922;-77
2021/12/08 14:23:30;;;;;;;;;;;2.10;91.30;;;;;;4989984;28;19922;-77
2021/12/08 14:26:01;;;;;;;;;;;2.00;91.20;;;;;;4997001;28;19922;-78
2021/12/08 14:28:38;;;;;;;;;;;2.00;91.20;;;;;;5002363;28;20410;-81
2021/12/08 14:31:26;;;;;;;;;;;2.00;91.30;;;;;;4994555;28;19925;-82
2021/12/08 14:33:53;;;;;;;;;;;2.00;91.30;;;;;;4984192;28;20012;-82
2021/12/08 14:36:25;;;;;;;;;;;2.00;91.20;;;;;;4990674;28;19925;-81
2021/12/08 14:38:53;;;;;;;;;;;2.00;91.30;;;;;;5012872;28;19922;-82
2021/12/08 14:41:26;;;;;;;;;;;2.00;91.20;;;;;;5012442;28;19937;-77
2021/12/08 14:44:00;;;;;;;;;;;2.10;91.30;;;;;;4980719;28;19929;-78
2021/12/08 14:46:27;;;;;;;;;;;2.10;91.40;;;;;;4995924;28;19922;-77
2021/12/08 14:49:01;;;;;;;;;;;2.10;91.40;;;;;;4989674;28;19932;-77
2021/12/08 14:51:29;;;;;;;;;;;2.00;91.50;;;;;;4986833;28;20398;-77
2021/12/08 14:54:16;;;;;;;;;;;2.00;91.30;;;;;;4996367;28;19928;-78
2021/12/08 14:56:57;;;;;;;;;;;2.00;91.30;;;;;;4985978;28;19922;-77
2021/12/08 14:59:24;;;;;;;46.50;28.63;;;2.00;91.30;;;;;;4996208;28;19926;-77
2021/12/08 15:01:52;;;;;;;44.20;29.55;;;2.00;91.40;;;;;;4993553;28;20277;-82
2021/12/08 15:04:19;;;;;;;68.20;47.58;;;2.00;91.30;;;;;;4984332;28;20392;-78
2021/12/08 15:07:01;;;;;;;51.25;40.10;;;2.10;91.20;;;;;;4995124;28;20472;-82
2021/12/08 15:09:30;;;;;;;45.37;34.13;;;2.00;91.30;;;;;;4977985;28;20427;-77
2021/12/08 15:11:58;;;;;;;38.70;30.83;;;2.10;91.60;;;;;;4987885;28;20430;-79
2021/12/08 15:14:27;;;;;;;30.42;25.38;;;2.00;91.70;;;;;;4994843;28;20461;-82
2021/12/08 15:16:56;;;;;;;25.45;21.58;;;2.00;91.70;;;;;;4998264;28;20440;-79
2021/12/08 15:19:24;;;;;;;24.92;21.33;;;2.00;92.30;;;;;;4987364;28;20455;-77
2021/12/08 15:21:54;;;;;;;55.70;35.20;;;2.00;91.90;;;;;;4992759;28;20426;-77
2021/12/08 15:24:23;;;;;;;52.00;33.40;;;2.00;91.90;;;;;;4984910;28;20446;-80
2021/12/08 15:26:52;;;;;;;55.50;35.38;;;1.90;91.90;;;;;;4974894;28;20420;-77
2021/12/08 15:29:25;;;;;;;59.25;33.97;;;1.90;92.00;;;;;;4992915;28;20948;-77
2021/12/08 15:31:58;;;;;;;31.15;24.30;;;1.90;91.90;;;;;;4983344;28;20824;-78
2021/12/08 15:34:35;;;;;;;25.83;21.42;;;1.80;91.90;;;;;;4998238;28;20426;-78
2021/12/08 15:37:13;;;;;;;24.17;20.85;;;1.80;92.00;;;;;;4991590;28;20419;-79
2021/12/08 15:39:42;;;;;;;22.77;20.23;;;1.90;92.00;;;;;;4988081;28;20847;-82